Time;durP1;ratioP1;P1;durP2;ratioP2;P2;SDS_P1;SDS_P2;PMS_P1;PMS_P2;Temp;Humidity;BMP_temperature;BMP_pressure;BME280_temperature;BME280_humidity;BME280_pressure;Samples;Min_cycle;Max_cycle;Signal;HPM_P1;HPM_P2
2021/12/21 00:00:44;;;;;;;;;;;77.40;2227.20;;;;;;5018534;28;19952;-74
2021/12/21 00:03:09;;;;;;;;;;;77.40;2227.20;;;;;;5019228;28;19983;-86
2021/12/21 00:05:36;;;;;;;;;;;77.40;2227.20;;;;;;5018567;28;19912;-85
2021/12/21 00:08:03;;;;;;;;;;;77.30;2227.20;;;;;;5034969;28;19909;-85
2021/12/21 00:10:30;;;;;;;;;;;77.30;2227.20;;;;;;5034711;28;19913;-87
2021/12/21 00:15:52;;;;;;;;;;;77.20;2227.20;;;;;;5045884;28;19921;-84
2021/12/21 00:18:25;;;;;;;;;;;77.30;2227.20;;;;;;5046718;28;19909;-84
2021/12/21 00:26:02;;;;;;;;;;;77.30;2227.20;;;;;;5038425;28;19913;-84
2021/12/21 00:28:32;;;;;;;;;;;77.30;2227.20;;;;;;5049305;28;20417;-85
2021/12/21 00:30:58;;;;;;;;;;;77.30;2227.20;;;;;;5035862;28;19943;-83
2021/12/21 00:33:23;;;;;;;;;;;77.30;2227.20;;;;;;5035820;28;19947;-81
2021/12/21 00:35:49;;;;;;;;;;;77.40;2227.20;;;;;;5035949;28;19911;-76
2021/12/21 00:38:14;;;;;;;;;;;77.40;2227.20;;;;;;5035684;28;19913;-82
2021/12/21 00:40:40;;;;;;;;;;;77.40;2227.20;;;;;;5052552;28;19912;-84
2021/12/21 00:43:06;;;;;;;;;;;77.30;2227.20;;;;;;5027076;28;19905;-76
2021/12/21 00:45:31;;;;;;;;;;;77.30;2227.20;;;;;;5053275;28;20015;-77
2021/12/21 00:47:57;;;;;;;;;;;77.30;2227.20;;;;;;5052775;28;19904;-84
2021/12/21 00:50:22;;;;;;;;;;;77.20;2227.20;;;;;;5035168;28;20414;-84
2021/12/21 00:52:49;;;;;;;;;;;77.10;2227.20;;;;;;5028022;28;19908;-83
2021/12/21 00:55:15;;;;;;;;;;;77.30;2227.20;;;;;;5049241;28;19920;-82
2021/12/21 00:57:41;;;;;;;;;;;77.20;2227.20;;;;;;5034939;28;19912;-83
2021/12/21 01:00:07;;;;;;;;;;;77.20;2227.20;;;;;;5052508;28;19919;-83
2021/12/21 01:02:33;;;;;;;;;;;77.30;2227.20;;;;;;5053109;28;19908;-84
2021/12/21 01:04:59;;;;;;;;;;;77.30;2227.20;;;;;;5035266;28;20374;-81
2021/12/21 01:07:39;;;;;;;;;;;77.20;2227.20;;;;;;5035682;28;20461;-84
2021/12/21 01:12:57;;;;;;;;;;;77.10;2227.20;;;;;;5042681;28;20014;-85
2021/12/21 01:18:15;;;;;;;;;;;77.00;2227.20;;;;;;5043006;28;19984;-86
2021/12/21 01:21:02;;;;;;;;;;;76.90;2227.20;;;;;;5037318;28;19921;-85
2021/12/21 01:23:50;;;;;;;;;;;77.10;2227.20;;;;;;5039155;28;19911;-86
2021/12/21 01:29:05;;;;;;;;;;;77.10;2227.20;;;;;;5039125;28;19917;-87
2021/12/21 01:31:43;;;;;;;;;;;77.10;2227.20;;;;;;5022598;28;20003;-86
2021/12/21 01:37:04;;;;;;;;;;;76.90;2227.20;;;;;;5041376;28;19915;-86
2021/12/21 01:42:25;;;;;;;;;;;76.90;2227.20;;;;;;5041553;28;19906;-82
2021/12/21 01:50:19;;;;;;;;;;;76.80;2227.20;;;;;;5039983;28;19970;-84
2021/12/21 01:52:45;;;;;;;;;;;76.80;2227.20;;;;;;5021280;28;20390;-85
2021/12/21 01:55:10;;;;;;;;;;;76.90;2227.20;;;;;;5042793;28;20069;-85
2021/12/21 01:57:36;;;;;;;;;;;76.90;2227.20;;;;;;5025411;28;19905;-86
2021/12/21 02:00:04;;;;;;;;;;;76.90;2227.20;;;;;;5041629;28;20396;-85
2021/12/21 02:02:29;;;;;;;;;;;76.80;2227.20;;;;;;5024379;28;19905;-82
2021/12/21 02:04:55;;;;;;;;;;;76.80;2227.20;;;;;;5039462;28;20008;-86
2021/12/21 02:07:21;;;;;;;;;;;76.80;2227.20;;;;;;5026032;28;19912;-87
2021/12/21 02:09:46;;;;;;;;;;;76.80;2227.20;;;;;;5042004;28;19905;-87
2021/12/21 02:12:13;;;;;;;;;;;76.90;2227.20;;;;;;5044879;28;19925;-85
2021/12/21 02:14:40;;;;;;;;;;;76.80;2227.20;;;;;;5027779;28;19910;-85
2021/12/21 02:19:53;;;;;;;;;;;76.90;2227.20;;;;;;5044476;28;19956;-84
2021/12/21 02:22:20;;;;;;;;;;;77.00;2227.20;;;;;;5027185;28;19944;-85
2021/12/21 02:25:00;;;;;;;;;;;77.00;2227.20;;;;;;5029886;28;19909;-85
2021/12/21 02:27:29;;;;;;;;;;;77.10;2227.20;;;;;;5029310;28;20424;-86
2021/12/21 02:29:55;;;;;;;;;;;77.10;2227.20;;;;;;5028069;28;19916;-82
2021/12/21 02:32:22;;;;;;;;;;;77.00;2227.20;;;;;;5045279;28;19904;-84
2021/12/21 02:34:48;;;;;;;;;;;77.00;2227.20;;;;;;5023868;28;19905;-85
2021/12/21 02:37:14;;;;;;;;;;;76.90;2227.20;;;;;;5044323;28;20298;-86
2021/12/21 02:39:40;;;;;;;;;;;77.20;2227.20;;;;;;5028596;28;20115;-83
2021/12/21 02:42:06;;;;;;;;;;;77.20;2227.20;;;;;;5027370;28;19956;-78
2021/12/21 02:44:31;;;;;;;;;;;77.20;2227.20;;;;;;5027028;28;19905;-81
2021/12/21 02:46:57;;;;;;;;;;;77.20;2227.20;;;;;;5047330;28;19905;-85
2021/12/21 02:49:23;;;;;;;;;;;77.20;2227.20;;;;;;5047467;28;19905;-85
2021/12/21 02:51:48;;;;;;;;;;;77.20;2227.20;;;;;;5046397;28;20392;-86
2021/12/21 02:54:14;;;;;;;;;;;77.20;2227.20;;;;;;5046880;28;20243;-85
2021/12/21 02:56:40;;;;;;;;;;;77.00;2227.20;;;;;;5043801;28;20349;-87
2021/12/21 02:59:06;;;;;;;;;;;77.10;2227.20;;;;;;5044129;28;19967;-84
2021/12/21 03:01:32;;;;;;;;;;;77.10;2227.20;;;;;;5047371;28;20437;-85
2021/12/21 03:03:57;;;;;;;;;;;77.00;2227.20;;;;;;5028277;28;19913;-76
2021/12/21 03:07:08;;;;;;;;;;;77.10;2227.20;;;;;;5026204;28;19904;-85
2021/12/21 03:12:10;;;;;;;;;;;77.20;2227.20;;;;;;5043637;28;19975;-84
2021/12/21 03:14:36;;;;;;;;;;;77.10;2227.20;;;;;;5024776;28;20282;-85
2021/12/21 03:17:02;;;;;;;;;;;77.10;2227.20;;;;;;5047039;28;19909;-83
2021/12/21 03:19:28;;;;;;;;;;;77.40;2227.20;;;;;;5028699;28;19966;-86
2021/12/21 03:21:53;;;;;;;;;;;77.20;2227.20;;;;;;5026064;28;19937;-85
2021/12/21 03:24:19;;;;;;;;;;;77.20;2227.20;;;;;;5045009;28;19952;-84
2021/12/21 03:26:45;;;;;;;;;;;77.20;2227.20;;;;;;5024806;28;19909;-82
2021/12/21 03:29:11;;;;;;;;;;;77.10;2227.20;;;;;;5040607;28;19905;-83
2021/12/21 03:31:37;;;;;;;;;;;77.20;2227.20;;;;;;5025631;28;19905;-83
2021/12/21 03:34:03;;;;;;;;;;;77.20;2227.20;;;;;;5027684;28;20362;-83
2021/12/21 03:36:29;;;;;;;;;;;77.00;2227.20;;;;;;5043271;28;19920;-84
2021/12/21 03:39:18;;;;;;;;;;;77.10;2227.20;;;;;;5027377;28;19916;-84
2021/12/21 03:41:44;;;;;;;;;;;77.20;2227.20;;;;;;5045763;28;19924;-83
2021/12/21 03:44:10;;;;;;;;;;;77.30;2227.20;;;;;;5025688;28;19905;-82
2021/12/21 03:46:43;;;;;;;;;;;77.20;2227.20;;;;;;5030349;28;19924;-84
2021/12/21 03:49:33;;;;;;;;;;;77.30;2227.20;;;;;;5045821;28;19912;-81
2021/12/21 03:51:54;;;;;;;;;;;77.10;2227.20;;;;;;5042800;28;19932;-83
2021/12/21 03:54:20;;;;;;;;;;;77.20;2227.20;;;;;;5043365;28;19909;-84
2021/12/21 03:56:49;;;;;;;;;;;77.20;2227.20;;;;;;5043310;28;19995;-83
2021/12/21 03:59:14;;;;;;;;;;;77.20;2227.20;;;;;;5044848;28;19928;-83
2021/12/21 04:01:40;;;;;;;;;;;77.40;2227.20;;;;;;5045102;28;19904;-82
2021/12/21 04:04:06;;;;;;;;;;;77.20;2227.20;;;;;;5045302;28;19909;-78
2021/12/21 04:06:31;;;;;;;;;;;77.30;2227.20;;;;;;5045111;28;19908;-83
2021/12/21 04:08:57;;;;;;;;;;;77.20;2227.20;;;;;;5043783;28;19916;-83
2021/12/21 04:11:23;;;;;;;;;;;77.20;2227.20;;;;;;5043385;28;19996;-83
2021/12/21 04:13:48;;;;;;;;;;;77.20;2227.20;;;;;;5044718;28;20012;-83
2021/12/21 04:16:14;;;;;;;;;;;77.10;2227.20;;;;;;5024604;28;19905;-82
2021/12/21 04:18:40;;;;;;;;;;;77.20;2227.20;;;;;;5043626;28;19912;-83
2021/12/21 04:21:08;;;;;;;;;;;77.10;2227.20;;;;;;5045588;28;20251;-83
2021/12/21 04:23:35;;;;;;;;;;;77.20;2227.20;;;;;;5022467;28;19905;-82
2021/12/21 04:26:00;;;;;;;;;;;77.30;2227.20;;;;;;5026228;28;20397;-85
2021/12/21 04:28:26;;;;;;;;;;;77.20;2227.20;;;;;;5044723;28;19904;-76
2021/12/21 04:30:52;;;;;;;;;;;77.10;2227.20;;;;;;5029268;28;20010;-83
2021/12/21 04:33:17;;;;;;;;;;;77.10;2227.20;;;;;;5041139;28;19911;-85
2021/12/21 04:35:43;;;;;;;;;;;76.90;2227.20;;;;;;5043841;28;20248;-76
2021/12/21 04:38:20;;;;;;;;;;;76.90;2227.20;;;;;;5022638;28;19996;-80
2021/12/21 04:40:48;;;;;;;;;;;76.80;2227.20;;;;;;5025277;28;19923;-88
2021/12/21 04:43:14;;;;;;;;;;;76.80;2227.20;;;;;;5042833;28;20394;-89
2021/12/21 04:45:40;;;;;;;;;;;76.90;2227.20;;;;;;5027733;28;19905;-86
2021/12/21 04:48:05;;;;;;;;;;;77.10;2227.20;;;;;;5025111;28;20258;-78
2021/12/21 04:50:31;;;;;;;;;;;77.00;2227.20;;;;;;5044809;28;19904;-85
2021/12/21 04:52:57;;;;;;;;;;;76.80;2227.20;;;;;;5042392;28;20433;-87
2021/12/21 04:55:22;;;;;;;;;;;77.10;2227.20;;;;;;5043290;28;19971;-86
2021/12/21 04:57:48;;;;;;;;;;;77.00;2227.20;;;;;;5043492;28;19939;-86
2021/12/21 05:00:14;;;;;;;;;;;77.00;2227.20;;;;;;5026237;28;20000;-86
2021/12/21 05:02:40;;;;;;;;;;;51.80;2227.20;;;;;;5042887;28;20050;-87
2021/12/21 05:05:06;;;;;;;;;;;51.70;2227.20;;;;;;5025250;28;19954;-82
2021/12/21 05:07:34;;;;;;;;;;;51.70;2227.20;;;;;;5026433;28;20278;-87
2021/12/21 05:10:01;;;;;;;;;;;52.00;2227.20;;;;;;5023892;28;19908;-86
2021/12/21 05:12:27;;;;;;;;;;;52.10;2227.20;;;;;;5023608;28;20000;-88
2021/12/21 05:14:53;;;;;;;;;;;52.00;2227.20;;;;;;5026666;28;19960;-85
2021/12/21 05:17:19;;;;;;;;;;;52.10;2227.20;;;;;;5026140;28;19915;-85
2021/12/21 05:19:44;;;;;;;;;;;76.80;2227.20;;;;;;5040808;28;20358;-80
2021/12/21 05:22:10;;;;;;;;;;;52.10;2227.20;;;;;;5025762;28;19952;-76
2021/12/21 05:24:36;;;;;;;;;;;52.10;2227.20;;;;;;5023748;28;19915;-85
2021/12/21 05:27:01;;;;;;;;;;;76.80;2227.20;;;;;;5024998;28;20339;-82
2021/12/21 05:29:27;;;;;;;;;;;77.00;2227.20;;;;;;5024512;28;19909;-79
2021/12/21 05:31:53;;;;;;;;;;;77.10;2227.20;;;;;;5043889;28;19943;-75
2021/12/21 05:34:18;;;;;;;;;;;77.30;2227.20;;;;;;5024027;28;19905;-79
2021/12/21 05:36:44;;;;;;;;;;;77.40;2227.20;;;;;;5042395;28;19986;-78
2021/12/21 05:39:20;;;;;;;;;;;77.60;2227.20;;;;;;5042716;28;19970;-78
2021/12/21 05:41:51;;;;;;;;;;;77.40;2227.20;;;;;;5043567;28;19909;-82
2021/12/21 05:44:18;;;;;;;;;;;77.40;2227.20;;;;;;5026483;28;19908;-86
2021/12/21 05:46:43;;;;;;;;;;;77.20;2227.20;;;;;;5029179;28;19912;-83
2021/12/21 05:49:09;;;;;;;;;;;77.50;2227.20;;;;;;5043808;28;19906;-85
2021/12/21 05:51:34;;;;;;;;;;;77.50;2227.20;;;;;;5044364;28;19912;-83
2021/12/21 05:54:00;;;;;;;;;;;77.60;2227.20;;;;;;5038683;28;19974;-84
2021/12/21 05:56:26;;;;;;;;;;;77.30;2227.20;;;;;;5015607;28;19932;-78
2021/12/21 05:58:51;;;;;;;;;;;77.50;2227.20;;;;;;5036098;28;20026;-86
2021/12/21 06:01:17;;;;;;;;;;;77.60;2227.20;;;;;;5034829;28;19909;-78
2021/12/21 06:03:43;;;;;;;;;;;77.20;2227.20;;;;;;5017792;28;19908;-78
2021/12/21 06:06:13;;;;;;;;;;;77.10;2227.20;;;;;;5035834;28;19905;-82
2021/12/21 06:08:39;;;;;;;;;;;77.20;2227.20;;;;;;5016321;28;19905;-77
2021/12/21 06:11:07;;;;;;;;;;;77.20;2227.20;;;;;;5024190;28;19932;-83
2021/12/21 06:13:59;;;;;;;;;;;77.20;2227.20;;;;;;5036220;28;19945;-84
2021/12/21 06:27:04;;;;;;;;;;;52.00;2227.20;;;;;;5055627;28;19970;-84
2021/12/21 06:29:30;;;;;;;;;;;76.80;2227.20;;;;;;5055322;28;20017;-84
2021/12/21 06:31:55;;;;;;;;;;;76.80;2227.20;;;;;;5055839;28;20007;-79
2021/12/21 06:34:21;;;;;;;;;;;77.00;2227.20;;;;;;5045660;28;19908;-83
2021/12/21 06:36:47;;;;;;;;;;;76.80;2227.20;;;;;;5054964;28;19905;-77
2021/12/21 06:39:13;;;;;;;;;;;51.90;2227.20;;;;;;5055299;28;20383;-79
2021/12/21 06:41:38;;;;;;;;;;;51.90;2227.20;;;;;;5052195;28;19912;-79
2021/12/21 06:44:04;;;;;;;;;;;51.80;2227.20;;;;;;5038270;28;19909;-81
2021/12/21 06:47:08;;;;;;;;;;;51.60;2227.20;;;;;;5034826;28;19951;-77
2021/12/21 06:52:01;;;;;;;;;;;51.50;2227.20;;;;;;5055787;28;20250;-81
2021/12/21 06:54:27;;;;;;;;;;;51.60;2227.20;;;;;;5055535;28;19931;-76
2021/12/21 06:56:53;;;;;;;;;;;51.80;2227.20;;;;;;5055293;28;19908;-80
2021/12/21 06:59:18;;;;;;;;;;;51.60;2227.20;;;;;;5054184;28;19913;-81
2021/12/21 07:01:44;;;;;;;;;;;51.60;2227.20;;;;;;5054928;28;19904;-86
2021/12/21 07:04:10;;;;;;;;;;;51.70;2227.20;;;;;;5055577;28;20263;-84
2021/12/21 07:06:36;;;;;;;;;;;51.90;2227.20;;;;;;5055697;28;19928;-85
2021/12/21 07:09:12;;;;;;;;;;;52.10;2227.20;;;;;;5054838;28;19911;-86
2021/12/21 07:19:32;;;;;;;;;;;51.90;2227.20;;;;;;5066221;28;19969;-83
2021/12/21 07:21:58;;;;;;;;;;;51.70;2227.20;;;;;;5057860;28;19909;-85
2021/12/21 07:24:24;;;;;;;;;;;51.70;2227.20;;;;;;5057512;28;20015;-78
2021/12/21 07:26:50;;;;;;;;;;;51.60;2227.20;;;;;;5075259;28;20046;-85
2021/12/21 07:29:15;;;;;;;;;;;51.80;2227.20;;;;;;5075670;28;19946;-84
2021/12/21 07:31:41;;;;;;;;;;;51.70;2227.20;;;;;;5075618;28;19920;-76
2021/12/21 07:34:06;;;;;;;;;;;52.00;2227.20;;;;;;5090656;28;19904;-78
2021/12/21 07:36:34;;;;;;;;;;;76.80;2227.20;;;;;;5075087;28;19961;-84
2021/12/21 07:39:00;;;;;;;;;;;76.80;2227.20;;;;;;5074818;28;19913;-75
2021/12/21 07:41:25;;;;;;;;;;;77.00;2227.20;;;;;;5058187;28;20277;-83
2021/12/21 07:43:51;;;;;;;;;;;76.90;2227.20;;;;;;5053942;28;19916;-84
2021/12/21 07:46:17;;;;;;;;;;;76.90;2227.20;;;;;;5059790;28;19908;-80
2021/12/21 07:48:43;;;;;;;;;;;76.80;2227.20;;;;;;5061697;28;20035;-84
2021/12/21 07:51:09;;;;;;;;;;;77.00;2227.20;;;;;;5060820;28;19913;-87
2021/12/21 07:53:35;;;;;;;;;;;77.20;2227.20;;;;;;5063271;28;19931;-81
2021/12/21 07:56:02;;;;;;;;;;;77.20;2227.20;;;;;;5063525;28;20343;-83
2021/12/21 07:58:32;;;;;;;;;;;77.20;2227.20;;;;;;5037007;28;19938;-84
2021/12/21 08:00:58;;;;;;;;;;;77.40;2227.20;;;;;;5060809;28;19919;-81
2021/12/21 08:03:24;;;;;;;;;;;77.60;2227.20;;;;;;5061982;28;21298;-78
2021/12/21 08:05:53;;;;;;;;;;;77.40;2227.20;;;;;;5059655;28;19911;-82
2021/12/21 08:08:21;;;;;;;;;;;77.30;2227.20;;;;;;5061649;28;19911;-80
2021/12/21 08:13:16;;;;;;;;;;;77.50;2227.20;;;;;;5063645;28;20003;-80
2021/12/21 08:15:42;;;;;;;;;;;77.60;2227.20;;;;;;5062497;28;19986;-80
2021/12/21 08:18:08;;;;;;;;;;;77.40;2227.20;;;;;;5046620;28;20052;-81
2021/12/21 08:20:33;;;;;;;;;;;77.20;2227.20;;;;;;5062833;28;20260;-81
2021/12/21 08:22:59;;;;;;;;;;;77.50;2227.20;;;;;;5044936;28;19908;-80
2021/12/21 08:25:26;;;;;;;;;;;77.60;2227.20;;;;;;5064344;28;19917;-80
2021/12/21 08:27:52;;;;;;;;;;;77.40;2227.20;;;;;;5062572;28;19909;-79
2021/12/21 08:30:17;;;;;;;;;;;77.20;2227.20;;;;;;5062942;28;19994;-77
2021/12/21 08:32:43;;;;;;;;;;;77.60;2227.20;;;;;;5064335;28;19991;-80
2021/12/21 08:35:12;;;;;;;;;;;77.70;2227.20;;;;;;5044081;28;20340;-80
2021/12/21 08:37:38;;;;;;;;;;;102.50;2227.20;;;;;;5063069;28;19908;-80
2021/12/21 08:40:04;;;;;;;;;;;102.40;2227.20;;;;;;5063817;28;19958;-79
2021/12/21 08:42:30;;;;;;;;;;;77.40;2227.20;;;;;;5054337;28;19912;-76
2021/12/21 08:44:59;;;;;;;;;;;77.70;2227.20;;;;;;5044295;28;19904;-75
2021/12/21 08:47:25;;;;;;;;;;;102.60;2227.20;;;;;;5063726;28;20006;-81
2021/12/21 08:49:50;;;;;;;;;;;102.70;2227.20;;;;;;5058154;28;19943;-79
2021/12/21 08:52:16;;;;;;;;;;;102.70;2227.20;;;;;;5053158;28;19967;-79
2021/12/21 08:54:42;;;;;;;;;;;102.70;2227.20;;;;;;5053566;28;19916;-81
2021/12/21 08:57:08;;;;;;;;;;;102.80;2227.20;;;;;;5053491;28;19904;-80
2021/12/21 08:59:33;;;;;;;;;;;103.00;2227.20;;;;;;5053604;28;19935;-75
2021/12/21 09:01:59;;;;;;;;;;;103.00;2227.20;;;;;;5053217;28;19931;-80
2021/12/21 09:04:24;;;;;;;;;;;103.10;2227.20;;;;;;5053492;28;20325;-79
2021/12/21 09:06:50;;;;;;;;;;;103.30;2227.20;;;;;;5052923;28;19951;-76
2021/12/21 09:09:16;;;;;;;;;;;103.30;2227.20;;;;;;5053503;28;19909;-80
2021/12/21 09:11:45;;;;;;;;;;;128.00;2252.80;;;;;;5035175;28;20003;-80
2021/12/21 09:14:11;;;;;;;;;;;128.10;2252.80;;;;;;5053503;28;19905;-79
2021/12/21 09:16:36;;;;;;;;;;;103.30;2227.20;;;;;;5052598;28;20232;-80
2021/12/21 09:19:03;;;;;;;;;;;128.10;2252.80;;;;;;5052777;28;20372;-77
2021/12/21 09:21:30;;;;;;;;;;;128.10;2252.80;;;;;;5053083;28;19908;-77
2021/12/21 09:23:56;;;;;;;;;;;128.20;2252.80;;;;;;5034865;28;19932;-75
2021/12/21 09:26:21;;;;;;;;;;;128.20;2252.80;;;;;;5054058;28;19944;-76
2021/12/21 09:28:47;;;;;;;;;;;128.20;2252.80;;;;;;5062119;28;19958;-77
2021/12/21 09:31:12;;;;;;;;;;;128.10;2252.80;;;;;;5045622;28;20345;-81
2021/12/21 09:33:38;;;;;;;;;;;128.20;2252.80;;;;;;5063115;28;19908;-77
2021/12/21 09:36:04;;;;;;;;;;;128.10;2252.80;;;;;;5045600;28;20004;-77
2021/12/21 09:38:29;;;;;;;;;;;128.30;2252.80;;;;;;5055117;28;20278;-80
2021/12/21 09:40:55;;;;;;;;;;;128.40;2252.80;;;;;;5053022;28;19912;-81
2021/12/21 09:43:21;;;;;;;;;;;128.20;2252.80;;;;;;5052638;28;19927;-81
2021/12/21 09:45:47;;;;;;;;;;;128.40;2252.80;;;;;;5035122;28;20362;-80
2021/12/21 09:48:13;;;;;;;;;;;128.30;2252.80;;;;;;5035428;28;20353;-80
2021/12/21 09:50:38;;;;;;;;;;;128.40;2252.80;;;;;;5052920;28;19999;-81
2021/12/21 09:53:04;;;;;;;;;;;128.50;2252.80;;;;;;5035115;28;19913;-80
2021/12/21 09:55:30;;;;;;;;;;;128.50;2252.80;;;;;;5053038;28;19913;-79
2021/12/21 09:57:56;;;;;;;;;;;128.60;2252.80;;;;;;5053021;28;19905;-85
2021/12/21 10:00:24;;;;;;;;;;;128.70;2252.80;;;;;;5035405;28;20438;-84
2021/12/21 10:02:50;;;;;;;;;;;128.70;2252.80;;;;;;5035282;28;19911;-77
2021/12/21 10:05:17;;;;;;;;;;;128.80;2252.80;;;;;;5052931;28;19905;-82
2021/12/21 10:07:43;;;;;;;;;;;128.90;2252.80;;;;;;5035018;28;19909;-77
2021/12/21 10:10:08;;;;;;;;;;;128.90;2252.80;;;;;;5034964;28;19915;-84
2021/12/21 10:12:44;;;;;;;;;;;128.80;2252.80;;;;;;5039749;28;19932;-84
2021/12/21 10:15:14;;;;;;;;;;;153.80;2252.80;;;;;;5061665;28;19911;-79
2021/12/21 10:17:54;;;;;;;;;;;153.80;2252.80;;;;;;5058586;28;19955;-76
2021/12/21 10:20:49;;;;;;;;;;;153.80;2252.80;;;;;;5072759;28;19912;-82
2021/12/21 10:23:34;;;;;;;;;;;153.80;2252.80;;;;;;4971676;28;19937;-80
2021/12/21 10:26:04;;;;;;;;;;;153.70;2252.80;;;;;;4962560;28;19914;-82
2021/12/21 10:28:34;;;;;;;;;;;128.90;2252.80;;;;;;4962396;28;19938;-78
2021/12/21 10:31:01;;;;;;;;;;;128.80;2252.80;;;;;;4954230;28;19906;-85
2021/12/21 10:33:27;;;;;;;;;;;128.80;2252.80;;;;;;4975231;28;19906;-82
2021/12/21 10:35:57;;;;;;;;;;;153.80;2252.80;;;;;;4959756;28;19917;-80
2021/12/21 10:38:23;;;;;;;;;;;153.80;2252.80;;;;;;4959037;28;19919;-83
2021/12/21 10:40:50;;;;;;;;;;;154.00;2252.80;;;;;;4975842;28;19919;-77
2021/12/21 10:43:16;;;;;;;;;;;153.90;2252.80;;;;;;4991283;28;19906;-81
2021/12/21 10:45:43;;;;;;;;;;;153.70;2252.80;;;;;;4958816;28;19913;-76
2021/12/21 10:48:16;;;;;;;;;;;154.00;2252.80;;;;;;4990611;28;19910;-81
2021/12/21 10:50:42;;;;;;;;;;;154.50;2176.00;;;;;;4968552;28;19906;-79
2021/12/21 10:53:15;;;;;;;;;;;179.30;2150.40;;;;;;4960476;28;19957;-78
2021/12/21 10:55:41;;;;;;;;;;;179.50;2124.80;;;;;;4946554;28;19953;-78
2021/12/21 10:58:08;;;;;;;;;;;179.40;2048.00;;;;;;4965663;28;19958;-80
2021/12/21 11:00:36;;;;;;;;;;;179.40;2048.00;;;;;;5055137;28;20008;-77
2021/12/21 11:03:01;;;;;;;;;;;179.60;1996.80;;;;;;5048147;28;20354;-81
2021/12/21 11:05:27;;;;;;;;;;;179.80;1945.60;;;;;;5066634;28;20003;-82
2021/12/21 11:08:02;;;;;;;;;;;179.90;1894.40;;;;;;5065750;28;20327;-77
2021/12/21 11:10:32;;;;;;;;;;;179.80;1920.00;;;;;;5047148;28;19996;-78
2021/12/21 11:12:59;;;;;;;;;;;179.80;1945.60;;;;;;5029351;28;19917;-82
2021/12/21 11:15:29;;;;;;;;;;;180.10;1894.40;;;;;;5037757;28;19905;-81
2021/12/21 11:17:59;;;;;;;;;;;204.80;1868.80;;;;;;5042216;28;19912;-75
2021/12/21 11:20:25;;;;;;;;;;;204.90;1843.20;;;;;;5026061;28;19917;-81
2021/12/21 11:22:51;;;;;;;;;;;205.20;1817.60;;;;;;5020252;28;20403;-81
2021/12/21 11:25:17;;;;;;;;;;;205.00;1766.40;;;;;;5017732;28;20270;-77
2021/12/21 11:27:43;;;;;;;;;;;204.90;1792.00;;;;;;5035824;28;19909;-83
2021/12/21 11:30:10;;;;;;;;;;;180.10;1715.20;;;;;;5017453;28;19905;-83
2021/12/21 11:32:39;;;;;;;;;;;179.70;1740.80;;;;;;5017702;28;19905;-76
2021/12/21 11:37:36;;;;;;;;;;;179.60;1689.60;;;;;;5035189;28;19912;-75
2021/12/21 11:40:03;;;;;;;;;;;179.70;1638.40;;;;;;5034802;28;19921;-76
2021/12/21 11:42:47;;;;;;;;;;;179.50;1587.20;;;;;;5036470;28;19909;-80
2021/12/21 11:45:13;;;;;;;;;;;179.30;1689.60;;;;;;5044900;28;19913;-82
2021/12/21 11:47:47;;;;;;;;;;;179.30;1715.20;;;;;;5045166;28;19905;-81
2021/12/21 11:50:13;;;;;;;;;;;179.20;1715.20;;;;;;5027193;28;19908;-84
2021/12/21 11:52:46;;;;;;;;;;;154.30;1715.20;;;;;;5027728;28;19908;-81
2021/12/21 11:55:11;;;;;;;;;;;154.10;1715.20;;;;;;5027123;28;19908;-81
2021/12/21 11:57:41;;;;;;;;;;;154.00;1740.80;;;;;;5028260;28;20358;-83
2021/12/21 12:00:12;;;;;;;;;;;154.20;1740.80;;;;;;5043514;28;19912;-76
2021/12/21 12:02:38;;;;;;;;;;;153.90;1766.40;;;;;;5040172;28;19951;-82
2021/12/21 12:05:14;;;;;;;;;;;153.80;1766.40;;;;;;5025154;28;19905;-80
2021/12/21 12:07:39;;;;;;;;;;;153.80;1766.40;;;;;;5022843;28;19905;-85
2021/12/21 12:10:07;;;;;;;;;;;154.00;1792.00;;;;;;5041661;28;20286;-81
2021/12/21 12:12:33;;;;;;;;;;;153.60;1817.60;;;;;;5028561;28;20419;-82
2021/12/21 12:14:59;;;;;;;;;;;153.60;1817.60;;;;;;5036791;28;19936;-83
2021/12/21 12:17:26;;;;;;;;;;;153.70;1843.20;;;;;;5036800;28;19948;-82
2021/12/21 12:19:55;;;;;;;;;;;153.70;1868.80;;;;;;5053698;28;20312;-79
2021/12/21 12:22:31;;;;;;;;;;;153.70;1868.80;;;;;;5054114;28;19908;-78
2021/12/21 12:24:57;;;;;;;;;;;153.80;1920.00;;;;;;5036162;28;19915;-79
2021/12/21 12:27:24;;;;;;;;;;;153.70;1971.20;;;;;;5054060;28;19909;-77
2021/12/21 12:29:51;;;;;;;;;;;153.60;2022.40;;;;;;5036089;28;20262;-78
2021/12/21 12:32:18;;;;;;;;;;;128.90;2022.40;;;;;;5053395;28;19927;-76
2021/12/21 12:34:44;;;;;;;;;;;128.80;2099.20;;;;;;5038354;28;20003;-83
2021/12/21 12:37:20;;;;;;;;;;;128.80;2124.80;;;;;;5043848;28;19987;-79
2021/12/21 12:39:49;;;;;;;;;;;128.80;2124.80;;;;;;5061271;28;19916;-81
2021/12/21 12:42:18;;;;;;;;;;;128.70;2124.80;;;;;;5044906;28;19911;-80
2021/12/21 12:44:45;;;;;;;;;;;128.70;2150.40;;;;;;5063741;28;19962;-77
2021/12/21 12:47:12;;;;;;;;;;;128.70;2150.40;;;;;;5042483;28;19908;-80
2021/12/21 12:49:48;;;;;;;;;;;128.70;2124.80;;;;;;5045270;28;19908;-76
2021/12/21 12:52:15;;;;;;;;;;;128.70;2124.80;;;;;;5042957;28;19916;-79
2021/12/21 12:54:43;;;;;;;;;;;128.70;2099.20;;;;;;5042444;28;19909;-80
2021/12/21 12:57:09;;;;;;;;;;;128.70;2073.60;;;;;;5059280;28;19904;-81
2021/12/21 12:59:35;;;;;;;;;;;128.60;2048.00;;;;;;5062877;28;19959;-79
2021/12/21 13:02:06;;;;;;;;;;;128.50;2048.00;;;;;;5063587;28;19905;-78
2021/12/21 13:04:32;;;;;;;;;;;128.70;2048.00;;;;;;5054191;28;19916;-80
2021/12/21 13:06:58;;;;;;;;;;;128.40;1996.80;;;;;;5042933;28;19911;-80
2021/12/21 13:09:24;;;;;;;;;;;128.30;1996.80;;;;;;5032512;28;20351;-80
2021/12/21 13:11:50;;;;;;;;;;;128.30;2022.40;;;;;;5046020;28;20000;-79
2021/12/21 13:14:16;;;;;;;;;;;128.40;2022.40;;;;;;5042225;28;19930;-80
2021/12/21 13:16:42;;;;;;;;;;;128.40;2022.40;;;;;;5060443;28;19909;-80
2021/12/21 13:19:12;;;;;;;;;;;128.50;2048.00;;;;;;5054535;28;19974;-79
2021/12/21 13:21:50;;;;;;;;;;;128.40;2073.60;;;;;;5061981;28;20318;-79
2021/12/21 13:24:20;;;;;;;;;;;128.30;2073.60;;;;;;5061433;28;19908;-80
2021/12/21 13:26:48;;;;;;;;;;;128.40;2124.80;;;;;;5060383;28;20362;-80
2021/12/21 13:29:16;;;;;;;;;;;128.30;2150.40;;;;;;5036470;28;19923;-80
2021/12/21 13:31:43;;;;;;;;;;;128.50;2176.00;;;;;;5048643;28;19909;-80
2021/12/21 13:34:08;;;;;;;;;;;128.40;2176.00;;;;;;5031711;28;19912;-81
2021/12/21 13:36:34;;;;;;;;;;;128.50;2176.00;;;;;;5040340;28;19924;-80
2021/12/21 13:39:02;;;;;;;;;;;128.50;2176.00;;;;;;5033884;28;19909;-79
2021/12/21 13:41:27;;;;;;;;;;;128.60;2201.60;;;;;;5051370;28;19911;-76
2021/12/21 13:43:58;;;;;;;;;;;128.50;2227.20;;;;;;5051529;28;20015;-78
2021/12/21 13:46:23;;;;;;;;;;;128.60;2252.80;;;;;;5049425;28;19912;-79
2021/12/21 13:48:57;;;;;;;;;;;128.60;2252.80;;;;;;5051399;28;19912;-77
2021/12/21 13:51:23;;;;;;;;;;;128.60;2252.80;;;;;;5031277;28;19943;-76
2021/12/21 13:53:50;;;;;;;;;;;128.60;2252.80;;;;;;5033367;28;19913;-76
2021/12/21 13:56:18;;;;;;;;;;;128.50;2252.80;;;;;;5051176;28;20354;-80
2021/12/21 13:58:43;;;;;;;;;;;128.50;2252.80;;;;;;5051259;28;20393;-81
2021/12/21 14:01:16;;;;;;;;;;;128.40;2252.80;;;;;;5033398;28;19952;-80
2021/12/21 14:03:46;;;;;;;;;;;128.40;2252.80;;;;;;5048542;28;19967;-80
2021/12/21 14:06:14;;;;;;;;;;;128.50;2252.80;;;;;;5053906;28;19904;-78
2021/12/21 14:08:44;;;;;;;;;;;128.50;2252.80;;;;;;5037558;28;19912;-83
2021/12/21 14:11:11;;;;;;;;;;;128.50;2252.80;;;;;;5055287;28;19904;-82
2021/12/21 14:13:43;;;;;;;;;;;128.50;2252.80;;;;;;5054557;28;20376;-82
2021/12/21 14:16:13;;;;;;;;;;;128.50;2252.80;;;;;;5055028;28;19908;-84
2021/12/21 14:18:41;;;;;;;;;;;128.40;2252.80;;;;;;5054686;28;20377;-79
2021/12/21 14:21:10;;;;;;;;;;;128.40;2252.80;;;;;;5054613;28;19916;-78
2021/12/21 14:23:36;;;;;;;;;;;128.40;2252.80;;;;;;5052913;28;19909;-80
2021/12/21 14:26:12;;;;;;;;;;;128.20;2252.80;;;;;;5037274;28;19913;-81
2021/12/21 14:28:45;;;;;;;;;;;128.40;2252.80;;;;;;5053318;28;19916;-81
2021/12/21 14:31:13;;;;;;;;;;;128.40;2252.80;;;;;;5036790;28;19905;-80
2021/12/21 14:34:00;;;;;;;;;;;128.50;2252.80;;;;;;5037663;28;20005;-81
2021/12/21 14:36:26;;;;;;;;;;;128.40;2252.80;;;;;;5054469;28;19905;-85
2021/12/21 14:38:56;;;;;;;;;;;128.30;2252.80;;;;;;5037374;28;20366;-82
2021/12/21 14:41:28;;;;;;;;;;;128.40;2252.80;;;;;;5054746;28;19915;-77
2021/12/21 14:44:06;;;;;;;;;;;128.40;2252.80;;;;;;5060431;28;19955;-76
2021/12/21 14:46:33;;;;;;;;;;;128.60;2252.80;;;;;;5049650;28;19909;-77
2021/12/21 14:49:09;;;;;;;;;;;128.50;2252.80;;;;;;5033116;28;19904;-82